Station: Mallacoota  

  Atmospheric Gas Attenuation - ITU Rec 676-11   ----------------- dB/100km -----------------
Date Time Temp RH % AH g/m3 Dew Point Wind Direction Speed kph Gust kph Barometer mB Rainfall Since 9am 24GHz 47GHz 76GHz 122GHz 134GHz 241GHz
08/05 12:30 14.7 75 9.44 10.3 30 52 1014.7 0.6 21.3 27.1 42.8 112.5 108.5 374.0
08/05 12:20 14.6 77 9.64 10.6 24 35 1014.8 0.6 21.8 27.4 43.7 114.8 111.4 384.0
08/05 12:10 14.4 78 9.64 10.6 28 41 1014.7 0.6 21.8 27.5 43.8 115.1 111.7 384.9
08/05 12:00 14.6 81 10.14 11.4 30 54 1014.6 0.6 22.8 28.3 45.8 120.3 118.2 407.9
08/05 11:50 13.6 81 9.53 10.4 39 65 1014.7 0.6 21.6 27.5 43.8 115.0 111.3 383.6
08/05 11:40 13.6 87 10.24 11.5 28 43 1014.7 0.6 23.1 28.8 46.8 123.0 121.2 418.1
08/05 11:30 13.5 85 9.94 11 32 56 1014.6 0.6 22.5 28.3 45.6 119.8 117.1 403.9
08/05 11:20 14.3 81 9.95 11.1 28 43 1014.7 0.4 22.5 28.0 45.1 118.7 116.1 400.3
08/05 11:10 13.6 86 10.12 11.3 26 41 1014.6 0.4 22.9 28.5 46.3 121.7 119.5 412.2
08/05 11:00 14.4 81 10.01 11.2 26 44 1014.7 0.2 22.6 28.1 45.3 119.2 116.7 402.7
08/05 10:50 13.3 86 9.94 11 20 33 1014.7 0.2 22.5 28.3 45.7 120.1 117.4 405.0
08/05 10:40 13.4 86 10 11.1 26 35 1014.7 0.2 22.6 28.4 45.9 120.6 118.1 407.4
08/05 10:30 13.7 83 9.83 10.9 32 57 1014.4 0.2 22.2 28.0 45.0 118.2 115.3 397.5
08/05 10:20 14.3 81 9.95 11.1 26 32 1014.2 0 22.5 28.0 45.1 118.6 116.0 400.1
08/05 10:10 13.9 82 9.83 10.9 28 37 1014.1 0 22.2 27.9 44.8 117.9 114.9 396.4
08/05 10:00 14.5 80 9.95 11.1 28 50 1014 0 22.4 27.9 45.0 118.3 115.7 399.0
08/05 09:50 14 82 9.89 11 28 39 1013.8 0 22.3 28.0 45.0 118.4 115.6 398.7
08/05 09:40 14.1 82 9.95 11.1 24 37 1013.7 0 22.5 28.1 45.2 118.9 116.3 401.0
08/05 09:30 13.6 86 10.12 11.3 28 48 1013.7 0 22.9 28.5 46.2 121.6 119.4 411.9
08/05 09:20 13 90 10.21 11.4 24 39 1013.9 0 23.1 28.9 47.0 123.6 121.6 419.6
08/05 09:10 12.8 89 9.97 11 19 32 1013.8 0 22.6 28.5 46.1 121.1 118.5 408.8
08/05 09:00 12.8 89 9.97 11 20 41 1013.7 0 22.6 28.5 46.0 121.1 118.5 408.8
08/05 08:50 12.5 89 9.79 10.7 20 28 1013.5 21.4 22.2 28.3 45.4 119.5 116.4 401.4
08/05 08:40 12.6 89 9.85 10.8 20 26 1013.4 21.2 22.3 28.4 45.6 120.0 117.1 403.8
08/05 08:30 12.5 89 9.79 10.7 22 41 1013.5 21.2 22.2 28.3 45.4 119.5 116.4 401.4
08/05 08:20 12.4 89 9.73 10.6 19 24 1013.4 20.8 22.1 28.2 45.2 119.0 115.7 399.0
08/05 08:10 12.6 88 9.74 10.7 26 32 1013.3 20.8 22.1 28.2 45.2 118.8 115.6 398.4
08/05 08:00 13 83 9.41 10.2 24 46 1013 20.6 21.4 27.5 43.5 114.4 110.4 380.3
08/05 07:50 13.7 76 9 9.6 30 41 1012.7 20.4 20.5 26.6 41.4 108.8 103.8 357.4
08/05 07:40 13.3 79 9.13 9.7 28 33 1012.6 20.4 20.8 26.9 42.2 110.8 106.1 365.4
08/05 07:30 13.4 78 9.07 9.6 28 44 1012.8 20.4 20.6 26.8 41.9 110.0 105.2 362.1
08/05 07:20 13.1 81 9.24 9.9 24 32 1012.5 20.4 21.0 27.1 42.7 112.3 107.9 371.5
08/05 07:10 12.6 85 9.4 10.1 22 28 1012.3 20.4 21.4 27.5 43.7 114.8 110.8 381.6
08/05 07:00 12.7 84 9.35 10.1 26 50 1012.2 20.4 21.3 27.4 43.4 114.1 109.9 378.6
08/05 06:50 13 80 9.07 9.6 28 35 1012.1 20.4 20.6 26.9 42.1 110.5 105.7 363.8
08/05 06:40 12.9 80 9.02 9.5 20 28 1011.9 20.4 20.5 26.8 41.9 110.1 105.1 361.8
08/05 06:30 13 79 8.96 9.4 22 41 1011.8 20.4 20.4 26.7 41.6 109.3 104.1 358.5
08/05 06:20 12.8 80 8.96 9.4 26 35 1011.8 20.2 20.4 26.7 41.7 109.6 104.4 359.4
08/05 06:10 13.1 77 8.79 9.2 26 35 1011.8 20.2 20.0 26.4 40.9 107.3 101.7 350.0
08/05 06:00 13.7 71 8.41 8.5 28 44 1011.5 20.2 19.2 25.6 39.0 102.4 95.9 329.7
08/05 05:50 13.6 70 8.24 8.2 28 37 1011.5 20.2 18.8 25.3 38.4 100.7 93.8 322.3
08/05 05:40 13.4 71 8.25 8.3 30 41 1011.2 20.2 18.9 25.4 38.5 101.0 94.1 323.5
08/05 05:30 13.6 70 8.24 8.2 30 52 1011.2 20.2 18.8 25.3 38.4 100.7 93.8 322.2
08/05 05:20 13.6 68 8 7.8 30 43 1010.9 20.2 18.3 24.9 37.4 98.1 90.6 311.2
08/05 05:10 13.3 69 7.97 7.7 22 39 1010.9 20.2 18.3 24.9 37.4 98.2 90.6 311.1
08/05 05:00 13.3 69 7.97 7.7 26 56 1010.7 20.2 18.3 24.9 37.4 98.1 90.6 311.0
08/05 04:50 13.2 69 7.92 7.6 22 32 1010.7 20.2 18.2 24.9 37.3 97.7 90.0 309.1
08/05 04:40 13.4 68 7.91 7.6 30 44 1010.8 20.2 18.1 24.8 37.1 97.4 89.7 307.9
08/05 04:30 13.6 66 7.77 7.4 28 50 1010.9 20.2 17.8 24.5 36.5 95.7 87.7 300.9
08/05 04:20 13.5 66 7.72 7.3 26 41 1010.9 20.2 17.7 24.5 36.4 95.3 87.1 299.0
08/05 04:10 13.4 67 7.79 7.4 28 32 1010.9 20.2 17.9 24.6 36.7 96.2 88.1 302.5
08/05 04:00 13.4 66 7.67 7.2 28 52 1011.1 20.2 17.6 24.4 36.2 94.9 86.6 297.2
08/05 03:50 13.3 66 7.63 7.1 24 35 1011 20.2 17.5 24.4 36.1 94.6 86.2 295.7
08/05 03:40 13.2 67 7.69 7.2 30 44 1011.1 20.2 17.7 24.5 36.4 95.4 87.1 298.8
08/05 03:30 12.9 68 7.66 7.1 30 63 1011.1 20.2 17.6 24.6 36.4 95.4 87.0 298.6
08/05 03:20 13.1 65 7.42 6.7 28 37 1010.9 20.2 17.1 24.1 35.4 92.7 83.7 287.0
08/05 03:10 12.8 66 7.39 6.6 26 48 1011.1 20.2 17.1 24.2 35.4 92.7 83.7 286.8
08/05 03:00 12.7 66 7.35 6.5 26 44 1011.1 20.2 17.0 24.1 35.3 92.4 83.3 285.4
08/05 02:50 12.6 65 7.19 6.2 24 35 1011.3 20.2 16.6 23.9 34.7 90.9 81.4 278.7
08/05 02:40 12.3 67 7.28 6.4 30 43 1011.6 20.2 16.8 24.1 35.2 92.2 82.8 283.8
08/05 02:30 11.7 67 7.01 5.8 20 33 1011.7 20.2 16.3 23.9 34.4 90.1 80.0 273.8
08/05 02:20 11.6 67 6.96 5.7 20 26 1011.9 20.2 16.2 23.8 34.3 89.7 79.5 272.0
08/05 02:10 11.1 67 6.75 5.2 15 20 1012.2 20.2 15.8 23.7 33.7 88.1 77.3 264.3
08/05 02:00 10.9 68 6.77 5.2 19 35 1012.5 20.2 15.8 23.8 33.9 88.6 77.8 266.0
08/05 01:50 10.6 68 6.64 4.9 17 24 1012.6 20.2 15.5 23.6 33.5 87.6 76.4 261.2
08/05 01:40 10.3 69 6.61 4.9 17 22 1012.7 20.2 15.5 23.7 33.5 87.6 76.4 260.8
08/05 01:30 10.3 69 6.61 4.9 17 35 1013 20.2 15.5 23.7 33.5 87.7 76.4 260.9
08/05 01:20 10.2 69 6.57 4.8 19 24 1013.1 20.2 15.4 23.6 33.4 87.4 76.0 259.4
08/05 01:10 10.1 70 6.62 4.9 20 26 1013.4 20.2 15.5 23.8 33.7 88.0 76.7 262.1
08/05 01:00 10 70 6.58 4.8 15 30 1013.6 20.2 15.4 23.7 33.6 87.7 76.3 260.7
08/05 00:50 10 70 6.58 4.8 19 28 1013.7 20.2 15.4 23.7 33.6 87.7 76.3 260.7
08/05 00:40 10 70 6.58 4.8 22 32 1013.8 20.2 15.4 23.7 33.6 87.8 76.3 260.7
08/05 00:30 10.1 70 6.62 4.9 22 43 1014.1 20.2 15.5 23.8 33.7 88.1 76.8 262.2
08/05 00:20 10 71 6.67 5 20 30 1014.1 20.2 15.6 23.9 33.9 88.7 77.5 264.8
08/05 00:10 10 71 6.67 5 22 30 1014.3 20.2 15.6 23.9 33.9 88.7 77.5 264.9
08/05 00:00 9.8 71 6.59 4.8 20 37 1014.5 20.2 15.5 23.8 33.7 88.1 76.7 262.0
07/05 23:50 9.6 72 6.6 4.8 19 24 1014.7 20.2 15.5 23.9 33.8 88.5 77.1 263.1
07/05 23:40 9.4 72 6.51 4.6 13 17 1015 20.2 15.3 23.8 33.6 87.8 76.1 259.8
07/05 23:30 9.4 71 6.42 4.4 15 35 1015.1 20.2 15.1 23.7 33.2 86.9 74.9 255.7
07/05 23:20 9.4 72 6.51 4.6 19 24 1015.2 20.2 15.3 23.8 33.6 87.8 76.1 259.8
07/05 23:10 9.1 73 6.48 4.5 15 26 1015.4 20.2 15.3 23.9 33.6 87.9 76.0 259.5
07/05 23:00 9.1 73 6.48 4.5 15 28 1015.4 20.2 15.3 23.9 33.6 87.9 76.0 259.5
07/05 22:50 9.1 73 6.48 4.5 19 28 1015.6 20.2 15.3 23.9 33.6 87.9 76.0 259.5
07/05 22:40 8.8 75 6.53 4.6 11 19 1015.8 20.2 15.4 24.1 34.0 88.8 77.0 262.8
07/05 22:30 8.8 75 6.53 4.6 17 37 1016 20.2 15.4 24.1 34.0 88.8 77.0 262.9
07/05 22:20 8.7 76 6.58 4.7 17 28 1016.2 20.2 15.5 24.2 34.2 89.4 77.8 265.6
07/05 22:10 8.5 78 6.66 4.9 17 22 1016.2 20.2 15.7 24.4 34.6 90.5 79.0 269.9
07/05 22:00 8.4 80 6.79 5.2 17 30 1016.2 20.2 15.9 24.6 35.2 92.0 80.9 276.3
07/05 21:50 8.3 80 6.75 5.1 15 19 1016.3 20.2 15.9 24.6 35.1 91.7 80.4 274.8
07/05 21:40 8.2 82 6.87 5.3 17 22 1016.2 20.2 16.1 24.8 35.6 93.1 82.1 280.8
07/05 21:30 8.1 84 6.99 5.6 19 30 1016.3 20.2 16.4 25.0 36.1 94.6 83.9 286.8
07/05 21:20 8.1 85 7.08 5.7 19 24 1016.5 20.2 16.6 25.2 36.5 95.6 85.1 291.1
07/05 21:10 8.2 84 7.04 5.7 17 22 1016.5 20.2 16.5 25.1 36.3 95.0 84.4 288.8
07/05 21:00 8.4 81 6.87 5.3 20 41 1016.3 20 16.1 24.7 35.5 92.9 81.9 280.1
07/05 20:50 8.2 82 6.87 5.3 22 35 1016.2 20 16.1 24.8 35.6 93.1 82.1 280.8
07/05 20:40 8.2 81 6.79 5.1 20 30 1016.3 20 16.0 24.7 35.3 92.3 81.1 277.1
07/05 20:30 8.5 78 6.66 4.9 22 39 1016.5 20 15.7 24.4 34.6 90.6 79.1 270.0
07/05 20:20 8.6 77 6.62 4.8 20 30 1016.3 20 15.6 24.3 34.4 90.0 78.4 267.8
07/05 20:10 8.3 78 6.58 4.7 20 22 1016.5 20 15.5 24.3 34.4 89.9 78.2 267.0
07/05 20:00 8.2 79 6.62 4.8 20 33 1016.5 20 15.6 24.4 34.6 90.5 78.8 269.2

Last Refresh: 08-May-2026 12:07:36

Bureau of Meteorology